createdAt,value
2023-02-09T00:00:44.869Z,36.07
2023-02-09T00:05:50.383Z,30.00
2023-02-09T00:10:57.080Z,33.21
2023-02-09T00:16:04.184Z,31.07
2023-02-09T00:21:10.945Z,35.71
2023-02-09T00:26:17.943Z,42.14
2023-02-09T00:31:25.357Z,36.07
2023-02-09T00:36:31.128Z,23.21
2023-02-09T00:41:38.764Z,21.07
2023-02-09T00:46:44.979Z,21.07
2023-02-09T00:51:51.317Z,31.78
2023-02-09T00:56:57.553Z,32.50
2023-02-09T01:02:04.219Z,27.50
2023-02-09T01:07:10.541Z,38.92
2023-02-09T01:12:19.218Z,31.43
2023-02-09T01:17:26.266Z,39.28
2023-02-09T01:22:32.868Z,38.57
2023-02-09T01:27:40.088Z,54.28
2023-02-09T01:32:46.888Z,32.85
2023-02-09T01:37:54.223Z,22.14
2023-02-09T01:43:00.581Z,38.57
2023-02-09T01:48:06.642Z,35.00
2023-02-09T01:53:15.336Z,31.43
2023-02-09T01:58:22.377Z,35.35
2023-02-09T02:03:28.936Z,39.64
2023-02-09T02:08:36.337Z,33.92
2023-02-09T02:13:44.801Z,37.85
2023-02-09T02:18:51.896Z,47.85
2023-02-09T02:23:58.250Z,28.57
2023-02-09T02:29:04.326Z,41.78
2023-02-09T02:34:10.810Z,40.00
2023-02-09T02:39:16.835Z,47.49
2023-02-09T02:44:23.355Z,37.50
2023-02-09T02:49:29.509Z,41.07
2023-02-09T02:54:36.161Z,40.00
2023-02-09T02:59:42.254Z,43.57
2023-02-09T03:04:50.696Z,36.07
2023-02-09T03:09:56.736Z,41.78
2023-02-09T03:15:03.214Z,37.85
2023-02-09T03:20:10.384Z,27.14
2023-02-09T03:25:16.662Z,35.71
2023-02-09T03:30:22.904Z,23.21
2023-02-09T03:35:29.205Z,37.14
2023-02-09T03:40:35.492Z,38.92
2023-02-09T03:45:42.213Z,26.43
2023-02-09T03:50:48.292Z,42.50
2023-02-09T03:55:54.762Z,36.78
2023-02-09T04:01:01.938Z,30.00
2023-02-09T04:06:08.487Z,35.00
2023-02-09T04:11:16.832Z,35.00
2023-02-09T04:16:23.310Z,25.35
2023-02-09T04:21:30.398Z,40.35
2023-02-09T04:26:37.050Z,38.92
2023-02-09T04:31:43.236Z,39.64
2023-02-09T04:36:50.832Z,43.57
2023-02-09T04:41:58.024Z,40.35
2023-02-09T04:47:04.708Z,48.92
2023-02-09T04:52:11.704Z,41.42
2023-02-09T04:57:19.371Z,36.07
2023-02-09T05:02:25.466Z,36.42
2023-02-09T05:07:31.674Z,37.50
2023-02-09T05:12:38.063Z,29.64
2023-02-09T05:17:44.559Z,43.57
2023-02-09T05:22:50.664Z,46.42
2023-02-09T05:27:57.460Z,49.99
2023-02-09T05:33:03.592Z,54.99
2023-02-09T05:38:10.313Z,46.42
2023-02-09T05:43:16.274Z,34.64
2023-02-09T05:48:22.579Z,23.21
2023-02-09T05:53:29.176Z,41.42
2023-02-09T05:58:36.669Z,43.57
2023-02-09T06:03:41.968Z,38.21
2023-02-09T06:08:48.641Z,37.85
2023-02-09T06:13:54.698Z,29.64
2023-02-09T06:19:03.200Z,36.07
2023-02-09T06:24:09.503Z,41.78
2023-02-09T06:29:16.146Z,21.43
2023-02-09T06:34:22.312Z,38.57
2023-02-09T06:39:29.030Z,76.06
2023-02-09T06:44:35.121Z,35.00
2023-02-09T06:49:41.642Z,59.28
2023-02-09T06:54:47.833Z,33.21
2023-02-09T06:59:54.660Z,47.85
2023-02-09T07:05:01.919Z,40.35
2023-02-09T07:10:08.650Z,41.78
2023-02-09T07:15:14.746Z,37.14
2023-02-09T07:20:21.382Z,33.92
2023-02-09T07:25:27.632Z,36.42
2023-02-09T07:30:35.357Z,26.78
2023-02-09T07:35:42.729Z,26.43
2023-02-09T07:40:50.259Z,31.07
2023-02-09T07:45:56.466Z,42.14
2023-02-09T07:51:03.174Z,36.07
2023-02-09T07:56:09.305Z,26.07
2023-02-09T08:01:15.767Z,35.00
2023-02-09T08:06:24.286Z,21.43
2023-02-09T08:11:27.637Z,32.85
2023-02-09T08:16:33.795Z,38.21
2023-02-09T08:21:41.428Z,32.50
2023-02-09T08:26:47.553Z,38.21
2023-02-09T08:31:54.036Z,30.35
2023-02-09T08:37:01.092Z,24.28
2023-02-09T08:42:07.470Z,33.21
2023-02-09T08:47:13.750Z,34.64
2023-02-09T08:52:20.069Z,21.78
2023-02-09T08:57:38.371Z,40.00
2023-02-09T09:02:32.313Z,35.71
2023-02-09T09:07:38.577Z,36.42
2023-02-09T09:12:44.922Z,39.64
2023-02-09T09:17:53.356Z,21.43
2023-02-09T09:22:59.638Z,35.00
2023-02-09T09:28:05.975Z,29.64
2023-02-09T09:33:12.321Z,33.92
2023-02-09T09:38:20.484Z,43.21
2023-02-09T09:43:26.883Z,35.35
2023-02-09T09:48:34.085Z,24.28
2023-02-09T09:53:40.845Z,20.71
2023-02-09T09:59:00.095Z,34.28
2023-02-09T10:03:56.622Z,20.00
2023-02-09T10:09:03.724Z,24.64
2023-02-09T10:14:10.062Z,24.64
2023-02-09T10:19:16.403Z,20.00
2023-02-09T10:24:22.787Z,29.28
2023-02-09T10:29:29.267Z,36.42
2023-02-09T10:34:35.839Z,21.07
2023-02-09T10:39:42.149Z,21.78
2023-02-09T10:44:49.607Z,32.85
2023-02-09T10:49:56.682Z,22.14
2023-02-09T10:55:03.398Z,23.21
2023-02-09T11:00:09.719Z,21.07
2023-02-09T11:05:17.297Z,19.64
2023-02-09T11:10:23.463Z,22.85
2023-02-09T11:15:30.109Z,18.93
2023-02-09T11:20:36.261Z,21.07
2023-02-09T11:25:42.564Z,21.78
2023-02-09T11:30:49.496Z,20.35
2023-02-09T11:35:55.052Z,17.86
2023-02-09T11:41:01.173Z,19.28
2023-02-09T11:46:07.898Z,20.00
2023-02-09T11:51:14.166Z,22.50
2023-02-09T11:56:20.773Z,16.07
2023-02-09T12:01:27.875Z,18.93
2023-02-09T12:06:34.540Z,17.50
2023-02-09T12:11:40.790Z,9.64
2023-02-09T12:16:47.118Z,21.07
2023-02-09T12:21:54.177Z,17.86
2023-02-09T12:27:00.610Z,12.86
2023-02-09T12:32:06.825Z,14.28
2023-02-09T12:37:13.516Z,16.78
2023-02-09T12:42:19.697Z,20.71
2023-02-09T12:47:26.150Z,4.64
2023-02-09T12:52:33.521Z,12.50
2023-02-09T12:57:39.837Z,7.50
2023-02-09T13:02:45.897Z,4.29
2023-02-09T13:07:52.763Z,17.86
2023-02-09T13:12:59.494Z,20.71
2023-02-09T13:18:06.566Z,6.07
2023-02-09T13:23:12.934Z,14.28
2023-02-09T13:28:21.123Z,15.36
2023-02-09T13:33:27.296Z,1.79
2023-02-09T13:38:33.750Z,0.00
2023-02-09T13:43:41.843Z,6.43
2023-02-09T13:48:49.393Z,4.64
2023-02-09T13:53:55.554Z,15.00
2023-02-09T13:59:02.151Z,7.50
2023-02-09T14:04:08.317Z,7.50
2023-02-09T14:09:15.162Z,1.79
2023-02-09T14:14:22.424Z,3.93
2023-02-09T14:19:29.806Z,20.00
2023-02-09T14:24:37.024Z,0.00
2023-02-09T14:29:43.418Z,16.78
2023-02-09T14:34:50.677Z,0.71
2023-02-09T14:39:57.508Z,8.21
2023-02-09T14:45:03.595Z,12.86
2023-02-09T14:50:10.923Z,11.07
2023-02-09T14:55:17.167Z,15.00
2023-02-09T15:00:24.202Z,18.21
2023-02-09T15:05:31.564Z,23.21
2023-02-09T15:10:38.266Z,15.71
2023-02-09T15:15:44.577Z,19.28
2023-02-09T15:20:51.166Z,17.86
2023-02-09T15:25:58.452Z,19.28
2023-02-09T15:31:05.036Z,21.78
2023-02-09T15:36:12.310Z,28.21
2023-02-09T15:41:19.048Z,19.64
2023-02-09T15:46:25.445Z,21.78
2023-02-09T15:51:31.860Z,21.78
2023-02-09T15:56:40.165Z,20.00
2023-02-09T16:01:46.933Z,21.07
2023-02-09T16:06:55.423Z,29.28
2023-02-09T16:12:06.508Z,21.07
2023-02-09T16:17:02.549Z,21.07
2023-02-09T16:22:11.058Z,21.43
2023-02-09T16:27:17.340Z,21.78
2023-02-09T16:32:24.119Z,21.07
2023-02-09T16:37:30.537Z,35.71
2023-02-09T16:42:36.742Z,14.64
2023-02-09T16:47:42.946Z,18.57
2023-02-09T16:52:50.083Z,23.57
2023-02-09T16:57:57.405Z,21.07
2023-02-09T17:03:04.190Z,26.78
2023-02-09T17:08:34.389Z,20.00
2023-02-09T17:13:10.906Z,25.35
2023-02-09T17:18:18.209Z,24.64
2023-02-09T17:23:25.763Z,27.85
2023-02-09T17:28:32.142Z,24.28
2023-02-09T17:33:38.604Z,21.43
2023-02-09T17:38:45.142Z,29.28
2023-02-09T17:43:52.974Z,38.57
2023-02-09T17:49:00.369Z,33.57
2023-02-09T17:54:06.931Z,29.64
2023-02-09T17:59:12.905Z,29.64
2023-02-09T18:04:19.502Z,27.85
2023-02-09T18:09:27.566Z,33.21
2023-02-09T18:14:34.350Z,24.28
2023-02-09T18:19:40.345Z,22.50
2023-02-09T18:24:48.109Z,22.50
2023-02-09T18:29:54.258Z,42.50
2023-02-09T18:35:00.541Z,25.71
2023-02-09T18:40:06.725Z,21.07
2023-02-09T18:45:14.028Z,30.71
2023-02-09T18:50:20.338Z,29.28
2023-02-09T18:55:26.719Z,36.07
2023-02-09T19:00:34.127Z,21.07
2023-02-09T19:05:40.477Z,21.07
2023-02-09T19:10:46.678Z,21.07
2023-02-09T19:15:53.308Z,31.07
2023-02-09T19:21:00.565Z,42.50
2023-02-09T19:26:09.305Z,36.42
2023-02-09T19:31:15.560Z,38.92
2023-02-09T19:36:22.004Z,28.57
2023-02-09T19:41:28.336Z,33.92
2023-02-09T19:46:35.032Z,25.00
2023-02-09T19:51:40.996Z,45.35
2023-02-09T19:56:47.432Z,34.64
2023-02-09T20:01:53.565Z,38.92
2023-02-09T20:07:00.398Z,34.28
2023-02-09T20:12:06.586Z,28.93
2023-02-09T20:17:13.266Z,34.64
2023-02-09T20:22:19.503Z,21.07
2023-02-09T20:27:27.250Z,23.21
2023-02-09T20:32:33.389Z,32.14
2023-02-09T20:37:40.161Z,29.64
2023-02-09T20:42:46.557Z,31.78
2023-02-09T20:47:55.458Z,19.64
2023-02-09T20:53:01.684Z,39.28
2023-02-09T20:58:11.911Z,32.50
2023-02-09T21:03:17.754Z,36.07
2023-02-09T21:08:25.799Z,39.64
2023-02-09T21:13:32.162Z,21.07
2023-02-09T21:18:38.769Z,32.85
2023-02-09T21:23:45.133Z,22.14
2023-02-09T21:28:51.817Z,38.92
2023-02-09T21:33:58.565Z,28.57
2023-02-09T21:39:05.278Z,33.57
2023-02-09T21:44:12.752Z,37.50
2023-02-09T21:49:19.544Z,37.85
2023-02-09T21:54:27.471Z,38.21
2023-02-09T21:59:32.046Z,26.78
2023-02-09T22:04:39.481Z,31.43
2023-02-09T22:09:46.140Z,34.64
2023-02-09T22:14:52.520Z,30.71
2023-02-09T22:19:58.988Z,33.21
2023-02-09T22:25:05.389Z,27.50
2023-02-09T22:30:13.497Z,37.85
2023-02-09T22:35:19.944Z,37.50
2023-02-09T22:40:27.407Z,24.28
2023-02-09T22:45:34.828Z,34.64
2023-02-09T22:50:41.970Z,44.64
2023-02-09T22:55:48.594Z,34.64
2023-02-09T23:00:54.449Z,41.42
2023-02-09T23:06:01.002Z,41.42
2023-02-09T23:11:07.436Z,35.71
2023-02-09T23:16:13.931Z,26.43
2023-02-09T23:21:20.202Z,20.71
2023-02-09T23:26:26.372Z,44.28
2023-02-09T23:31:33.139Z,27.85
2023-02-09T23:36:40.542Z,41.07
2023-02-09T23:41:47.276Z,21.78
2023-02-09T23:46:53.628Z,42.50
2023-02-09T23:52:00.620Z,32.14
2023-02-09T23:57:26.019Z,38.21
